createdAt,value
2019-04-25T00:01:11.613Z,92.92
2019-04-25T00:04:23.334Z,94.28
2019-04-25T00:07:31.275Z,93.82
2019-04-25T00:10:41.971Z,94.07
2019-04-25T00:13:51.340Z,94.61
2019-04-25T00:17:01.601Z,94.69
2019-04-25T00:20:09.320Z,94.70
2019-04-25T00:23:17.074Z,94.53
2019-04-25T00:26:33.387Z,94.41
2019-04-25T00:29:43.427Z,95.00
2019-04-25T00:32:51.101Z,94.70
2019-04-25T00:35:58.947Z,95.01
2019-04-25T00:39:06.796Z,94.86
2019-04-25T00:42:14.544Z,95.03
2019-04-25T00:45:22.413Z,94.35
2019-04-25T00:48:31.606Z,93.24
2019-04-25T00:51:42.663Z,92.95
2019-04-25T00:54:50.502Z,94.51
2019-04-25T00:58:06.695Z,94.53
2019-04-25T01:01:37.212Z,94.74
2019-04-25T01:04:45.198Z,95.60
2019-04-25T01:07:53.576Z,95.02
2019-04-25T01:11:01.854Z,95.04
2019-04-25T01:14:09.452Z,95.19
2019-04-25T01:17:17.354Z,95.79
2019-04-25T01:20:24.983Z,96.21
2019-04-25T01:23:33.632Z,96.58
2019-04-25T01:26:41.584Z,97.56
2019-04-25T01:29:49.824Z,97.17
2019-04-25T01:32:57.626Z,97.03
2019-04-25T01:36:33.236Z,97.37
2019-04-25T01:40:06.876Z,97.33
2019-04-25T01:43:23.574Z,97.05
2019-04-25T01:46:31.563Z,97.76
2019-04-25T01:49:39.173Z,98.12
2019-04-25T01:52:46.567Z,98.66
2019-04-25T01:56:01.683Z,98.90
2019-04-25T01:59:04.252Z,99.55
2019-04-25T02:02:16.521Z,99.55
2019-04-25T02:05:24.288Z,99.25
2019-04-25T02:08:33.857Z,98.50
2019-04-25T02:12:04.774Z,98.90
2019-04-25T02:15:14.379Z,99.16
2019-04-25T02:18:23.412Z,99.94
2019-04-25T02:21:31.159Z,100.00
2019-04-25T02:24:38.594Z,100.00
2019-04-25T02:27:45.965Z,100.00
2019-04-25T02:30:57.370Z,100.00
2019-04-25T02:34:04.666Z,100.00
2019-04-25T02:37:14.659Z,100.00
2019-04-25T02:40:23.954Z,100.00
2019-04-25T02:43:31.513Z,100.00
2019-04-25T02:46:59.205Z,100.00
2019-04-25T02:50:19.313Z,100.00
2019-04-25T02:53:36.659Z,100.00
2019-04-25T02:56:40.990Z,100.00
2019-04-25T02:59:48.624Z,100.00
2019-04-25T03:02:57.895Z,100.00
2019-04-25T03:06:09.384Z,100.00
2019-04-25T03:09:15.806Z,100.00
2019-04-25T03:12:32.518Z,100.00
2019-04-25T03:15:34.167Z,100.00
2019-04-25T03:18:59.395Z,100.00
2019-04-25T03:22:11.662Z,100.00
2019-04-25T03:25:19.382Z,100.00
2019-04-25T03:28:27.905Z,100.00
2019-04-25T03:31:35.685Z,100.00
2019-04-25T03:34:43.501Z,100.00
2019-04-25T03:37:50.867Z,100.00
2019-04-25T03:40:58.502Z,100.00
2019-04-25T03:44:09.899Z,100.00
2019-04-25T03:47:17.579Z,100.00
2019-04-25T03:50:25.004Z,100.00
2019-04-25T03:53:33.708Z,100.00
2019-04-25T03:56:53.229Z,100.00
2019-04-25T03:59:50.733Z,100.00
2019-04-25T04:02:57.968Z,100.00
2019-04-25T04:06:07.230Z,100.00
2019-04-25T04:09:15.251Z,100.00
2019-04-25T04:12:24.262Z,100.00
2019-04-25T04:15:33.540Z,100.00
2019-04-25T04:18:44.190Z,100.00
2019-04-25T04:21:58.150Z,100.00
2019-04-25T04:25:07.482Z,100.00
2019-04-25T04:28:15.014Z,100.00
2019-04-25T04:31:23.541Z,100.00
2019-04-25T04:34:31.107Z,100.00
2019-04-25T04:37:38.613Z,100.00
2019-04-25T04:40:45.923Z,100.00
2019-04-25T04:43:54.187Z,100.00
2019-04-25T04:47:03.952Z,100.00
2019-04-25T04:50:14.155Z,100.00
2019-04-25T04:53:21.227Z,100.00
2019-04-25T04:56:29.019Z,100.00
2019-04-25T04:59:36.696Z,100.00
2019-04-25T05:03:09.311Z,100.00
2019-04-25T05:06:43.753Z,100.00
2019-04-25T05:09:51.438Z,100.00
2019-04-25T05:12:58.936Z,99.11
2019-04-25T05:16:06.200Z,97.09
2019-04-25T05:19:15.308Z,93.77
2019-04-25T05:22:24.361Z,92.37
2019-04-25T05:25:31.999Z,91.65
2019-04-25T05:28:39.294Z,92.24
2019-04-25T05:31:49.459Z,93.48
2019-04-25T05:34:56.706Z,93.16
2019-04-25T05:38:04.207Z,91.97
2019-04-25T05:41:35.893Z,91.62
2019-04-25T05:44:44.073Z,90.44
2019-04-25T05:47:51.733Z,88.50
2019-04-25T05:50:59.506Z,85.15
2019-04-25T05:54:07.081Z,77.22
2019-04-25T05:57:14.679Z,69.80
2019-04-25T06:00:24.595Z,64.39
2019-04-25T06:04:01.725Z,62.33
2019-04-25T06:07:09.859Z,59.55
2019-04-25T06:10:35.791Z,56.98
2019-04-25T06:13:48.818Z,55.77
2019-04-25T06:17:00.178Z,53.72
2019-04-25T06:20:08.879Z,51.61
2019-04-25T06:23:24.592Z,49.99
2019-04-25T06:26:40.121Z,48.00
2019-04-25T06:29:58.033Z,47.38
2019-04-25T06:32:59.772Z,47.16
2019-04-25T06:36:09.177Z,46.80
2019-04-25T06:39:16.931Z,46.65
2019-04-25T06:42:25.553Z,45.93
2019-04-25T06:45:59.045Z,47.62
2019-04-25T06:49:19.523Z,48.38
2019-04-25T06:52:31.982Z,47.15
2019-04-25T06:55:39.778Z,45.75
2019-04-25T06:58:47.492Z,45.35
2019-04-25T07:01:56.137Z,43.65
2019-04-25T07:05:04.990Z,42.85
2019-04-25T07:08:13.314Z,43.99
2019-04-25T07:11:21.357Z,45.29
2019-04-25T07:14:29.476Z,46.91
2019-04-25T07:17:37.166Z,45.85
2019-04-25T07:20:45.297Z,46.10
2019-04-25T07:23:54.214Z,45.14
2019-04-25T07:27:30.557Z,43.85
2019-04-25T07:30:54.718Z,44.00
2019-04-25T07:34:07.770Z,45.17
2019-04-25T07:37:15.740Z,47.35
2019-04-25T07:40:25.568Z,47.17
2019-04-25T07:43:34.180Z,48.93
2019-04-25T07:46:43.417Z,48.29
2019-04-25T07:49:51.594Z,46.74
2019-04-25T07:52:59.225Z,46.33
2019-04-25T07:56:06.644Z,46.15
2019-04-25T07:59:14.236Z,46.62
2019-04-25T08:02:23.306Z,45.96
2019-04-25T08:05:31.455Z,46.54
2019-04-25T08:08:38.953Z,44.95
2019-04-25T08:11:46.835Z,44.58
2019-04-25T08:15:00.902Z,44.79
2019-04-25T08:18:09.491Z,42.98
2019-04-25T08:21:17.912Z,44.56
2019-04-25T08:24:26.778Z,45.72
2019-04-25T08:27:35.552Z,45.76
2019-04-25T08:30:43.648Z,44.82
2019-04-25T08:33:53.476Z,46.08
2019-04-25T08:37:01.474Z,44.79
2019-04-25T08:40:09.264Z,46.41
2019-04-25T08:43:16.658Z,44.84
2019-04-25T08:46:25.308Z,45.96
2019-04-25T08:49:40.123Z,45.81
2019-04-25T08:52:47.660Z,46.32
2019-04-25T08:56:15.036Z,47.32
2019-04-25T08:59:48.077Z,47.58
2019-04-25T09:02:56.840Z,46.94
2019-04-25T09:06:04.552Z,47.44
2019-04-25T09:09:13.574Z,49.10
2019-04-25T09:12:21.400Z,46.38
2019-04-25T09:15:28.890Z,47.02
2019-04-25T09:18:37.031Z,47.70
2019-04-25T09:21:49.473Z,47.37
2019-04-25T09:24:58.121Z,48.61
2019-04-25T09:28:06.417Z,47.87
2019-04-25T09:31:14.179Z,48.45
2019-04-25T09:34:23.696Z,48.34
2019-04-25T09:37:31.679Z,46.50
2019-04-25T09:40:41.897Z,45.81
2019-04-25T09:43:52.956Z,44.88
2019-04-25T09:47:01.331Z,43.67
2019-04-25T09:50:14.008Z,42.94
2019-04-25T09:53:23.848Z,41.13
2019-04-25T09:56:38.217Z,39.85
2019-04-25T09:59:46.197Z,41.86
2019-04-25T10:02:55.295Z,42.05
2019-04-25T10:06:03.838Z,42.67
2019-04-25T10:09:13.559Z,41.08
2019-04-25T10:12:21.308Z,42.74
2019-04-25T10:16:04.698Z,42.32
2019-04-25T10:19:13.255Z,42.73
2019-04-25T10:22:21.362Z,41.90
2019-04-25T10:25:33.319Z,42.38
2019-04-25T10:28:44.097Z,41.80
2019-04-25T10:31:55.449Z,42.17
2019-04-25T10:35:06.239Z,40.48
2019-04-25T10:38:14.067Z,38.96
2019-04-25T10:41:21.974Z,40.58
2019-04-25T10:44:30.949Z,39.90
2019-04-25T10:47:40.096Z,38.23
2019-04-25T10:50:48.465Z,36.25
2019-04-25T10:53:56.124Z,37.73
2019-04-25T10:57:06.403Z,35.77
2019-04-25T11:00:31.970Z,33.46
2019-04-25T11:04:05.198Z,33.25
2019-04-25T11:07:14.357Z,33.83
2019-04-25T11:10:25.961Z,32.17
2019-04-25T11:13:35.435Z,33.28
2019-04-25T11:16:45.601Z,34.24
2019-04-25T11:19:53.986Z,33.74
2019-04-25T11:23:03.654Z,33.55
2019-04-25T11:26:11.899Z,33.40
2019-04-25T11:29:21.826Z,35.24
2019-04-25T11:32:29.363Z,32.84
2019-04-25T11:35:37.600Z,33.03
2019-04-25T11:39:00.082Z,33.52
2019-04-25T11:42:14.872Z,33.55
2019-04-25T11:45:22.955Z,33.83
2019-04-25T11:48:30.371Z,34.55
2019-04-25T11:51:38.610Z,32.89
2019-04-25T11:54:46.865Z,33.49
2019-04-25T11:57:55.870Z,33.62
2019-04-25T12:01:05.197Z,33.18
2019-04-25T12:04:13.154Z,32.12
2019-04-25T12:07:23.647Z,32.00
2019-04-25T12:10:32.238Z,32.98
2019-04-25T12:13:40.163Z,31.59
2019-04-25T12:16:49.125Z,32.57
2019-04-25T12:19:57.492Z,33.34
2019-04-25T12:23:10.279Z,32.47
2019-04-25T12:26:14.371Z,30.76
2019-04-25T12:29:21.934Z,31.76
2019-04-25T12:32:29.086Z,30.75
2019-04-25T12:35:37.031Z,31.82
2019-04-25T12:38:46.078Z,30.89
2019-04-25T12:41:54.522Z,32.49
2019-04-25T12:45:26.200Z,31.18
2019-04-25T12:48:34.177Z,31.18
2019-04-25T12:51:41.869Z,31.63
2019-04-25T12:54:49.206Z,32.58
2019-04-25T12:57:58.201Z,33.71
2019-04-25T13:01:07.428Z,31.52
2019-04-25T13:04:14.824Z,31.90
2019-04-25T13:07:23.649Z,33.08
2019-04-25T13:10:33.229Z,33.64
2019-04-25T13:13:43.523Z,32.16
2019-04-25T13:16:51.456Z,32.55
2019-04-25T13:19:59.523Z,33.42
2019-04-25T13:23:07.645Z,33.15
2019-04-25T13:26:17.308Z,33.85
2019-04-25T13:30:00.868Z,31.07
2019-04-25T13:33:30.599Z,30.64
2019-04-25T13:36:38.273Z,31.57
2019-04-25T13:39:45.883Z,33.62
2019-04-25T13:42:53.611Z,33.00
2019-04-25T13:46:02.515Z,33.84
2019-04-25T13:49:11.090Z,32.62
2019-04-25T13:52:18.726Z,34.01
2019-04-25T13:55:26.100Z,34.20
2019-04-25T13:58:34.292Z,33.45
2019-04-25T14:01:41.862Z,34.33
2019-04-25T14:04:49.472Z,34.96
2019-04-25T14:07:58.050Z,33.15
2019-04-25T14:11:05.546Z,34.74
2019-04-25T14:14:13.296Z,34.09
2019-04-25T14:17:40.190Z,35.22
2019-04-25T14:20:55.784Z,33.69
2019-04-25T14:24:04.164Z,34.44
2019-04-25T14:27:13.926Z,35.01
2019-04-25T14:30:24.969Z,36.12
2019-04-25T14:33:33.749Z,36.96
2019-04-25T14:36:42.300Z,34.95
2019-04-25T14:39:50.044Z,35.31
2019-04-25T14:42:58.212Z,35.92
2019-04-25T14:46:05.893Z,35.49
2019-04-25T14:49:13.597Z,36.75
2019-04-25T14:52:21.195Z,35.68
2019-04-25T14:55:54.195Z,35.59
2019-04-25T14:59:06.390Z,36.18
2019-04-25T15:02:14.694Z,36.29
2019-04-25T15:05:22.459Z,37.71
2019-04-25T15:08:31.143Z,37.19
2019-04-25T15:11:38.344Z,36.49
2019-04-25T15:14:46.398Z,37.96
2019-04-25T15:17:54.540Z,36.75
2019-04-25T15:21:02.393Z,36.97
2019-04-25T15:24:10.000Z,37.19
2019-04-25T15:27:17.482Z,37.33
2019-04-25T15:30:29.452Z,36.82
2019-04-25T15:33:37.268Z,36.07
2019-04-25T15:36:56.397Z,36.71
2019-04-25T15:40:20.985Z,37.10
2019-04-25T15:43:59.640Z,37.36
2019-04-25T15:47:10.857Z,36.39
2019-04-25T15:50:18.714Z,36.17
2019-04-25T15:53:26.385Z,36.21
2019-04-25T15:56:34.664Z,36.81
2019-04-25T15:59:42.245Z,36.88
2019-04-25T16:02:51.534Z,36.96
2019-04-25T16:06:00.343Z,37.23
2019-04-25T16:09:10.548Z,37.11
2019-04-25T16:12:18.521Z,38.36
2019-04-25T16:15:27.546Z,38.04
2019-04-25T16:18:35.341Z,38.75
2019-04-25T16:21:43.787Z,38.83
2019-04-25T16:24:51.225Z,38.65
2019-04-25T16:27:59.125Z,37.98
2019-04-25T16:31:08.402Z,37.99
2019-04-25T16:34:16.491Z,38.67
2019-04-25T16:37:23.975Z,37.88
2019-04-25T16:40:31.922Z,39.39
2019-04-25T16:43:43.252Z,39.81
2019-04-25T16:46:51.178Z,39.16
2019-04-25T16:49:58.536Z,39.40
2019-04-25T16:53:05.989Z,39.29
2019-04-25T16:56:13.795Z,39.16
2019-04-25T16:59:21.267Z,39.10
2019-04-25T17:02:35.491Z,39.87
2019-04-25T17:05:41.279Z,39.94
2019-04-25T17:08:48.924Z,40.22
2019-04-25T17:11:57.022Z,40.10
2019-04-25T17:15:17.346Z,40.97
2019-04-25T17:18:29.749Z,40.68
2019-04-25T17:21:39.196Z,41.09
2019-04-25T17:24:46.791Z,42.06
2019-04-25T17:27:54.820Z,42.30
2019-04-25T17:31:28.290Z,42.90
2019-04-25T17:35:07.689Z,42.47
2019-04-25T17:38:19.623Z,42.81
2019-04-25T17:41:27.175Z,43.40
2019-04-25T17:44:36.327Z,43.98
2019-04-25T17:47:54.388Z,44.24
2019-04-25T17:50:53.955Z,44.05
2019-04-25T17:54:01.731Z,45.23
2019-04-25T17:57:09.398Z,44.72
2019-04-25T18:00:26.852Z,45.07
2019-04-25T18:03:34.986Z,45.65
2019-04-25T18:06:42.708Z,45.25
2019-04-25T18:09:50.843Z,45.36
2019-04-25T18:12:59.175Z,46.44
2019-04-25T18:16:34.686Z,47.55
2019-04-25T18:19:47.136Z,47.74
2019-04-25T18:23:08.943Z,47.16
2019-04-25T18:26:28.043Z,46.64
2019-04-25T18:29:37.364Z,47.90
2019-04-25T18:32:53.373Z,47.93
2019-04-25T18:36:09.577Z,48.08
2019-04-25T18:39:33.130Z,48.79
2019-04-25T18:43:16.412Z,48.93
2019-04-25T18:46:38.389Z,48.21
2019-04-25T18:49:46.816Z,48.83
2019-04-25T18:53:06.545Z,49.27
2019-04-25T18:56:39.866Z,48.59
2019-04-25T19:00:08.444Z,48.61
2019-04-25T19:03:27.189Z,49.00
2019-04-25T19:06:35.164Z,49.44
2019-04-25T19:09:43.084Z,49.29
2019-04-25T19:12:51.931Z,49.34
2019-04-25T19:15:59.925Z,49.21
2019-04-25T19:19:07.809Z,49.31
2019-04-25T19:22:15.608Z,49.58
2019-04-25T19:25:23.315Z,48.72
2019-04-25T19:28:31.339Z,49.19
2019-04-25T19:31:39.838Z,49.66
2019-04-25T19:34:48.842Z,50.46
2019-04-25T19:37:58.208Z,49.24
2019-04-25T19:41:12.151Z,48.78
2019-04-25T19:44:23.761Z,49.29
2019-04-25T19:47:31.877Z,48.57
2019-04-25T19:50:40.552Z,49.01
2019-04-25T19:53:49.454Z,48.96
2019-04-25T19:56:57.618Z,49.94
2019-04-25T20:00:05.979Z,49.02
2019-04-25T20:03:29.813Z,48.94
2019-04-25T20:06:56.043Z,50.09
2019-04-25T20:10:23.299Z,49.47
2019-04-25T20:13:30.928Z,49.77
2019-04-25T20:16:45.933Z,49.98
2019-04-25T20:19:54.023Z,49.87
2019-04-25T20:23:01.529Z,49.97
2019-04-25T20:26:09.352Z,51.11
2019-04-25T20:29:17.084Z,51.45
2019-04-25T20:32:24.395Z,50.40
2019-04-25T20:35:32.182Z,51.22
2019-04-25T20:38:39.927Z,50.86
2019-04-25T20:41:48.156Z,52.02
2019-04-25T20:44:56.120Z,51.29
2019-04-25T20:48:03.589Z,51.77
2019-04-25T20:51:11.413Z,51.50
2019-04-25T20:54:19.821Z,52.25
2019-04-25T20:57:28.490Z,52.31
2019-04-25T21:00:42.681Z,53.07
2019-04-25T21:03:49.985Z,53.09
2019-04-25T21:06:57.433Z,53.81
2019-04-25T21:10:05.360Z,54.28
2019-04-25T21:13:17.900Z,54.67
2019-04-25T21:16:43.891Z,55.11
2019-04-25T21:19:52.870Z,55.20
2019-04-25T21:23:00.651Z,55.82
2019-04-25T21:26:08.773Z,55.69
2019-04-25T21:29:16.792Z,55.79
2019-04-25T21:32:27.018Z,55.79
2019-04-25T21:35:35.055Z,56.87
2019-04-25T21:38:42.982Z,56.19
2019-04-25T21:42:00.051Z,56.92
2019-04-25T21:45:08.819Z,57.07
2019-04-25T21:48:16.219Z,56.77
2019-04-25T21:51:33.010Z,57.77
2019-04-25T21:54:40.617Z,57.52
2019-04-25T21:57:48.243Z,57.37
2019-04-25T22:01:12.699Z,56.06
2019-04-25T22:04:20.982Z,56.61
2019-04-25T22:07:28.954Z,56.45
2019-04-25T22:10:37.094Z,57.49
2019-04-25T22:13:45.259Z,58.24
2019-04-25T22:16:53.502Z,58.59
2019-04-25T22:20:02.242Z,58.96
2019-04-25T22:23:10.324Z,58.82
2019-04-25T22:26:18.420Z,59.09
2019-04-25T22:29:27.064Z,59.50
2019-04-25T22:32:54.925Z,60.13
2019-04-25T22:36:06.849Z,60.78
2019-04-25T22:39:14.569Z,61.11
2019-04-25T22:42:22.462Z,61.93
2019-04-25T22:45:30.346Z,63.12
2019-04-25T22:48:47.328Z,62.65
2019-04-25T22:51:54.948Z,63.26
2019-04-25T22:55:03.237Z,63.65
2019-04-25T22:58:11.984Z,64.15
2019-04-25T23:01:32.899Z,63.26
2019-04-25T23:05:15.854Z,63.74
2019-04-25T23:08:21.792Z,64.15
2019-04-25T23:11:29.605Z,64.02
2019-04-25T23:14:38.095Z,62.21
2019-04-25T23:17:46.022Z,62.96
2019-04-25T23:20:53.696Z,61.93
2019-04-25T23:24:01.448Z,61.51
2019-04-25T23:27:27.935Z,61.80
2019-04-25T23:30:40.389Z,62.60
2019-04-25T23:33:48.273Z,61.14
2019-04-25T23:36:56.189Z,59.49
2019-04-25T23:40:05.152Z,57.45
2019-04-25T23:43:13.998Z,57.01
2019-04-25T23:46:21.265Z,57.47
2019-04-25T23:49:28.793Z,56.00
2019-04-25T23:52:37.172Z,56.32
2019-04-25T23:55:44.659Z,57.61
2019-04-25T23:58:52.146Z,57.79
